sensor_id;sensor_type;location;lat;lon;timestamp;temperature;humidity
3644;DHT22;1838;50.742;7.158;2023-12-22T00:02:09;7.40;99.90
3644;DHT22;1838;50.742;7.158;2023-12-22T00:04:35;7.40;99.90
3644;DHT22;1838;50.742;7.158;2023-12-22T00:07:00;7.40;99.90
3644;DHT22;1838;50.742;7.158;2023-12-22T00:09:25;7.40;99.90
3644;DHT22;1838;50.742;7.158;2023-12-22T00:11:51;7.40;99.90
3644;DHT22;1838;50.742;7.158;2023-12-22T00:14:16;7.40;99.90
3644;DHT22;1838;50.742;7.158;2023-12-22T00:16:42;7.30;99.90
3644;DHT22;1838;50.742;7.158;2023-12-22T00:19:07;6.80;99.90
3644;DHT22;1838;50.742;7.158;2023-12-22T00:21:34;6.50;99.90
3644;DHT22;1838;50.742;7.158;2023-12-22T00:23:59;6.00;99.90
3644;DHT22;1838;50.742;7.158;2023-12-22T00:26:25;5.90;99.90
3644;DHT22;1838;50.742;7.158;2023-12-22T00:28:50;5.80;99.90
3644;DHT22;1838;50.742;7.158;2023-12-22T00:31:16;5.70;99.90
3644;DHT22;1838;50.742;7.158;2023-12-22T00:33:41;5.60;99.90
3644;DHT22;1838;50.742;7.158;2023-12-22T00:36:07;5.60;99.90
3644;DHT22;1838;50.742;7.158;2023-12-22T00:38:33;5.60;99.90
3644;DHT22;1838;50.742;7.158;2023-12-22T00:40:59;5.50;99.90
3644;DHT22;1838;50.742;7.158;2023-12-22T00:43:24;5.60;99.90
3644;DHT22;1838;50.742;7.158;2023-12-22T00:45:50;5.60;99.90
3644;DHT22;1838;50.742;7.158;2023-12-22T00:48:15;5.70;99.90
3644;DHT22;1838;50.742;7.158;2023-12-22T00:50:41;5.70;99.90
3644;DHT22;1838;50.742;7.158;2023-12-22T00:53:06;5.80;99.90
3644;DHT22;1838;50.742;7.158;2023-12-22T00:55:32;5.80;99.90
3644;DHT22;1838;50.742;7.158;2023-12-22T00:57:57;5.90;99.90
3644;DHT22;1838;50.742;7.158;2023-12-22T01:00:23;5.90;99.90
3644;DHT22;1838;50.742;7.158;2023-12-22T01:02:49;6.00;99.90
3644;DHT22;1838;50.742;7.158;2023-12-22T01:05:14;6.00;99.90
3644;DHT22;1838;50.742;7.158;2023-12-22T01:07:40;6.10;99.90
3644;DHT22;1838;50.742;7.158;2023-12-22T01:10:06;6.10;99.90
3644;DHT22;1838;50.742;7.158;2023-12-22T01:12:31;6.20;99.90
3644;DHT22;1838;50.742;7.158;2023-12-22T01:14:57;6.20;99.90
3644;DHT22;1838;50.742;7.158;2023-12-22T01:17:23;6.20;99.90
3644;DHT22;1838;50.742;7.158;2023-12-22T01:19:48;6.30;99.90
3644;DHT22;1838;50.742;7.158;2023-12-22T01:22:14;6.30;99.90
3644;DHT22;1838;50.742;7.158;2023-12-22T01:24:40;6.30;99.90
3644;DHT22;1838;50.742;7.158;2023-12-22T01:27:08;6.40;99.90
3644;DHT22;1838;50.742;7.158;2023-12-22T01:29:34;6.40;99.90
3644;DHT22;1838;50.742;7.158;2023-12-22T01:32:00;6.40;99.90
3644;DHT22;1838;50.742;7.158;2023-12-22T01:34:25;6.50;99.90
3644;DHT22;1838;50.742;7.158;2023-12-22T01:36:51;6.50;99.90
3644;DHT22;1838;50.742;7.158;2023-12-22T01:39:17;6.60;99.90
3644;DHT22;1838;50.742;7.158;2023-12-22T01:41:42;6.60;99.90
3644;DHT22;1838;50.742;7.158;2023-12-22T01:44:08;6.60;99.90
3644;DHT22;1838;50.742;7.158;2023-12-22T01:46:34;6.60;99.90
3644;DHT22;1838;50.742;7.158;2023-12-22T01:49:00;6.70;99.90
3644;DHT22;1838;50.742;7.158;2023-12-22T01:51:28;6.60;99.90
3644;DHT22;1838;50.742;7.158;2023-12-22T01:53:54;6.70;99.90
3644;DHT22;1838;50.742;7.158;2023-12-22T01:56:20;6.70;99.90
3644;DHT22;1838;50.742;7.158;2023-12-22T01:58:45;6.80;99.90
3644;DHT22;1838;50.742;7.158;2023-12-22T02:01:11;6.80;99.90
3644;DHT22;1838;50.742;7.158;2023-12-22T02:03:37;6.80;99.90
3644;DHT22;1838;50.742;7.158;2023-12-22T02:06:04;6.80;99.90
3644;DHT22;1838;50.742;7.158;2023-12-22T02:08:31;6.90;99.90
3644;DHT22;1838;50.742;7.158;2023-12-22T02:10:58;6.80;99.90
3644;DHT22;1838;50.742;7.158;2023-12-22T02:13:23;6.80;99.90
3644;DHT22;1838;50.742;7.158;2023-12-22T02:15:58;6.90;99.90
3644;DHT22;1838;50.742;7.158;2023-12-22T02:18:31;6.90;99.90
3644;DHT22;1838;50.742;7.158;2023-12-22T02:20:58;6.80;99.90
3644;DHT22;1838;50.742;7.158;2023-12-22T02:23:24;6.80;99.90
3644;DHT22;1838;50.742;7.158;2023-12-22T02:26:04;6.80;99.90
3644;DHT22;1838;50.742;7.158;2023-12-22T02:28:34;6.90;99.90
3644;DHT22;1838;50.742;7.158;2023-12-22T02:31:17;6.90;99.90
3644;DHT22;1838;50.742;7.158;2023-12-22T02:33:44;7.00;99.90
3644;DHT22;1838;50.742;7.158;2023-12-22T02:36:13;7.00;99.90
3644;DHT22;1838;50.742;7.158;2023-12-22T02:38:41;7.00;99.90
3644;DHT22;1838;50.742;7.158;2023-12-22T02:41:08;7.00;99.90
3644;DHT22;1838;50.742;7.158;2023-12-22T02:43:33;6.90;99.90
3644;DHT22;1838;50.742;7.158;2023-12-22T02:45:59;7.00;99.90
3644;DHT22;1838;50.742;7.158;2023-12-22T02:48:24;7.00;99.90
3644;DHT22;1838;50.742;7.158;2023-12-22T02:50:50;6.90;99.90
3644;DHT22;1838;50.742;7.158;2023-12-22T02:53:15;7.00;99.90
3644;DHT22;1838;50.742;7.158;2023-12-22T02:55:41;7.00;99.90
3644;DHT22;1838;50.742;7.158;2023-12-22T02:58:06;7.00;99.90
3644;DHT22;1838;50.742;7.158;2023-12-22T03:00:32;7.10;99.90
3644;DHT22;1838;50.742;7.158;2023-12-22T03:02:57;7.10;99.90
3644;DHT22;1838;50.742;7.158;2023-12-22T03:05:23;7.10;99.90
3644;DHT22;1838;50.742;7.158;2023-12-22T03:07:48;7.00;99.90
3644;DHT22;1838;50.742;7.158;2023-12-22T03:10:14;7.00;99.90
3644;DHT22;1838;50.742;7.158;2023-12-22T03:12:39;7.00;99.90
3644;DHT22;1838;50.742;7.158;2023-12-22T03:15:05;6.90;99.90
3644;DHT22;1838;50.742;7.158;2023-12-22T03:17:31;6.90;99.90
3644;DHT22;1838;50.742;7.158;2023-12-22T03:19:57;6.90;99.90
3644;DHT22;1838;50.742;7.158;2023-12-22T03:30:09;7.00;99.90
3644;DHT22;1838;50.742;7.158;2023-12-22T03:32:34;7.10;99.90
3644;DHT22;1838;50.742;7.158;2023-12-22T03:35:00;7.10;99.90
3644;DHT22;1838;50.742;7.158;2023-12-22T03:37:26;7.10;99.90
3644;DHT22;1838;50.742;7.158;2023-12-22T03:39:52;7.20;99.90
3644;DHT22;1838;50.742;7.158;2023-12-22T03:44:47;7.30;99.90
3644;DHT22;1838;50.742;7.158;2023-12-22T03:47:13;7.30;99.90
3644;DHT22;1838;50.742;7.158;2023-12-22T03:49:40;7.30;99.90
3644;DHT22;1838;50.742;7.158;2023-12-22T03:52:06;7.40;99.90
3644;DHT22;1838;50.742;7.158;2023-12-22T03:54:31;7.40;99.90
3644;DHT22;1838;50.742;7.158;2023-12-22T03:56:57;7.40;99.90
3644;DHT22;1838;50.742;7.158;2023-12-22T03:59:22;7.40;99.90
3644;DHT22;1838;50.742;7.158;2023-12-22T04:01:52;7.50;99.90
3644;DHT22;1838;50.742;7.158;2023-12-22T04:04:18;7.50;99.90
3644;DHT22;1838;50.742;7.158;2023-12-22T04:06:43;7.60;99.90
3644;DHT22;1838;50.742;7.158;2023-12-22T04:09:09;7.60;99.90
3644;DHT22;1838;50.742;7.158;2023-12-22T04:11:34;7.60;99.90
3644;DHT22;1838;50.742;7.158;2023-12-22T04:14:02;7.60;99.90
3644;DHT22;1838;50.742;7.158;2023-12-22T04:16:27;7.60;99.90
3644;DHT22;1838;50.742;7.158;2023-12-22T04:18:53;7.60;99.90
3644;DHT22;1838;50.742;7.158;2023-12-22T04:21:18;7.60;99.90
3644;DHT22;1838;50.742;7.158;2023-12-22T04:23:44;7.50;99.90
3644;DHT22;1838;50.742;7.158;2023-12-22T04:26:09;7.50;99.90
3644;DHT22;1838;50.742;7.158;2023-12-22T04:28:35;7.50;99.90
3644;DHT22;1838;50.742;7.158;2023-12-22T04:31:00;7.50;99.90
3644;DHT22;1838;50.742;7.158;2023-12-22T04:33:26;7.40;99.90
3644;DHT22;1838;50.742;7.158;2023-12-22T04:35:51;7.50;99.90
3644;DHT22;1838;50.742;7.158;2023-12-22T04:38:17;7.50;99.90
3644;DHT22;1838;50.742;7.158;2023-12-22T04:40:42;7.40;99.90
3644;DHT22;1838;50.742;7.158;2023-12-22T04:43:09;7.40;99.90
3644;DHT22;1838;50.742;7.158;2023-12-22T04:45:34;7.40;99.90
3644;DHT22;1838;50.742;7.158;2023-12-22T04:48:00;7.40;99.90
3644;DHT22;1838;50.742;7.158;2023-12-22T04:50:25;7.40;99.90
3644;DHT22;1838;50.742;7.158;2023-12-22T04:52:51;7.40;99.90
3644;DHT22;1838;50.742;7.158;2023-12-22T04:55:16;7.40;99.90
3644;DHT22;1838;50.742;7.158;2023-12-22T04:57:43;7.30;99.90
3644;DHT22;1838;50.742;7.158;2023-12-22T05:00:08;7.30;99.90
3644;DHT22;1838;50.742;7.158;2023-12-22T05:02:34;7.30;99.90
3644;DHT22;1838;50.742;7.158;2023-12-22T05:05:00;7.30;99.90
3644;DHT22;1838;50.742;7.158;2023-12-22T05:07:27;7.30;99.90
3644;DHT22;1838;50.742;7.158;2023-12-22T05:09:53;7.30;99.90
3644;DHT22;1838;50.742;7.158;2023-12-22T05:12:19;7.30;99.90
3644;DHT22;1838;50.742;7.158;2023-12-22T05:14:45;7.40;99.90
3644;DHT22;1838;50.742;7.158;2023-12-22T05:17:10;7.40;99.90
3644;DHT22;1838;50.742;7.158;2023-12-22T05:19:36;7.40;99.90
3644;DHT22;1838;50.742;7.158;2023-12-22T05:22:01;7.40;99.90
3644;DHT22;1838;50.742;7.158;2023-12-22T05:24:27;7.40;99.90
3644;DHT22;1838;50.742;7.158;2023-12-22T05:26:52;7.50;99.90
3644;DHT22;1838;50.742;7.158;2023-12-22T05:29:18;7.60;99.90
3644;DHT22;1838;50.742;7.158;2023-12-22T05:31:44;7.60;99.90
3644;DHT22;1838;50.742;7.158;2023-12-22T05:34:09;7.70;99.90
3644;DHT22;1838;50.742;7.158;2023-12-22T05:36:44;7.70;99.90
3644;DHT22;1838;50.742;7.158;2023-12-22T05:39:10;7.70;99.90
3644;DHT22;1838;50.742;7.158;2023-12-22T05:41:36;7.80;99.90
3644;DHT22;1838;50.742;7.158;2023-12-22T05:44:04;7.80;99.90
3644;DHT22;1838;50.742;7.158;2023-12-22T05:46:30;7.80;99.90
3644;DHT22;1838;50.742;7.158;2023-12-22T05:48:55;7.80;99.90
3644;DHT22;1838;50.742;7.158;2023-12-22T05:51:24;7.90;99.90
3644;DHT22;1838;50.742;7.158;2023-12-22T05:53:51;8.00;99.90
3644;DHT22;1838;50.742;7.158;2023-12-22T05:56:19;8.00;99.90
3644;DHT22;1838;50.742;7.158;2023-12-22T05:58:45;8.10;99.90
3644;DHT22;1838;50.742;7.158;2023-12-22T06:01:18;8.10;99.90
3644;DHT22;1838;50.742;7.158;2023-12-22T06:03:47;8.10;99.90
3644;DHT22;1838;50.742;7.158;2023-12-22T06:06:13;8.10;99.90
3644;DHT22;1838;50.742;7.158;2023-12-22T06:08:38;8.10;99.90
3644;DHT22;1838;50.742;7.158;2023-12-22T06:11:04;8.20;99.90
3644;DHT22;1838;50.742;7.158;2023-12-22T06:13:30;8.20;99.90
3644;DHT22;1838;50.742;7.158;2023-12-22T06:15:56;8.20;99.90
3644;DHT22;1838;50.742;7.158;2023-12-22T06:18:22;8.20;99.90
3644;DHT22;1838;50.742;7.158;2023-12-22T06:20:47;8.30;99.90
3644;DHT22;1838;50.742;7.158;2023-12-22T06:23:13;8.30;99.90
3644;DHT22;1838;50.742;7.158;2023-12-22T06:25:38;8.30;99.90
3644;DHT22;1838;50.742;7.158;2023-12-22T06:28:04;8.30;99.90
3644;DHT22;1838;50.742;7.158;2023-12-22T06:30:29;8.30;99.90
3644;DHT22;1838;50.742;7.158;2023-12-22T06:32:55;8.30;99.90
3644;DHT22;1838;50.742;7.158;2023-12-22T06:35:21;8.30;99.90
3644;DHT22;1838;50.742;7.158;2023-12-22T06:37:49;8.30;99.90
3644;DHT22;1838;50.742;7.158;2023-12-22T06:40:15;8.30;99.90
3644;DHT22;1838;50.742;7.158;2023-12-22T06:42:41;8.40;99.90
3644;DHT22;1838;50.742;7.158;2023-12-22T06:45:06;8.40;99.90
3644;DHT22;1838;50.742;7.158;2023-12-22T06:47:32;8.40;99.90
3644;DHT22;1838;50.742;7.158;2023-12-22T06:49:58;8.50;99.90
3644;DHT22;1838;50.742;7.158;2023-12-22T06:52:24;8.50;99.90
3644;DHT22;1838;50.742;7.158;2023-12-22T06:54:49;8.50;99.90
3644;DHT22;1838;50.742;7.158;2023-12-22T06:57:15;8.50;99.90
3644;DHT22;1838;50.742;7.158;2023-12-22T06:59:41;8.50;99.90
3644;DHT22;1838;50.742;7.158;2023-12-22T07:02:07;8.60;99.90
3644;DHT22;1838;50.742;7.158;2023-12-22T07:07:31;8.50;99.90
3644;DHT22;1838;50.742;7.158;2023-12-22T07:09:57;8.60;99.90
3644;DHT22;1838;50.742;7.158;2023-12-22T07:12:22;8.60;99.90
3644;DHT22;1838;50.742;7.158;2023-12-22T07:14:48;8.60;99.90
3644;DHT22;1838;50.742;7.158;2023-12-22T07:17:13;8.50;99.90
3644;DHT22;1838;50.742;7.158;2023-12-22T07:19:39;8.50;99.90
3644;DHT22;1838;50.742;7.158;2023-12-22T07:22:04;8.40;99.90
3644;DHT22;1838;50.742;7.158;2023-12-22T07:24:30;8.50;99.90
3644;DHT22;1838;50.742;7.158;2023-12-22T07:26:55;8.40;99.90
3644;DHT22;1838;50.742;7.158;2023-12-22T07:29:21;8.40;99.90
3644;DHT22;1838;50.742;7.158;2023-12-22T07:31:46;8.40;99.90
3644;DHT22;1838;50.742;7.158;2023-12-22T07:34:12;8.50;99.90
3644;DHT22;1838;50.742;7.158;2023-12-22T07:36:37;8.50;99.90
3644;DHT22;1838;50.742;7.158;2023-12-22T07:39:03;8.50;99.90
3644;DHT22;1838;50.742;7.158;2023-12-22T07:41:28;8.50;99.90
3644;DHT22;1838;50.742;7.158;2023-12-22T07:43:54;8.40;99.90
3644;DHT22;1838;50.742;7.158;2023-12-22T07:46:20;8.40;99.90
3644;DHT22;1838;50.742;7.158;2023-12-22T07:48:47;8.50;99.90
3644;DHT22;1838;50.742;7.158;2023-12-22T07:51:13;8.50;99.90
3644;DHT22;1838;50.742;7.158;2023-12-22T07:53:38;8.50;99.90
3644;DHT22;1838;50.742;7.158;2023-12-22T07:56:04;8.50;99.90
3644;DHT22;1838;50.742;7.158;2023-12-22T07:58:31;8.50;99.90
3644;DHT22;1838;50.742;7.158;2023-12-22T08:00:58;8.50;99.90
3644;DHT22;1838;50.742;7.158;2023-12-22T08:03:23;8.50;99.90
3644;DHT22;1838;50.742;7.158;2023-12-22T08:05:49;8.50;99.90
3644;DHT22;1838;50.742;7.158;2023-12-22T08:08:14;8.50;99.90
3644;DHT22;1838;50.742;7.158;2023-12-22T08:10:41;8.60;99.90
3644;DHT22;1838;50.742;7.158;2023-12-22T08:13:06;8.60;99.90
3644;DHT22;1838;50.742;7.158;2023-12-22T08:15:32;8.60;99.90
3644;DHT22;1838;50.742;7.158;2023-12-22T08:17:57;8.50;99.90
3644;DHT22;1838;50.742;7.158;2023-12-22T08:20:23;8.50;99.90
3644;DHT22;1838;50.742;7.158;2023-12-22T08:22:49;8.50;99.90
3644;DHT22;1838;50.742;7.158;2023-12-22T08:25:16;8.60;99.90
3644;DHT22;1838;50.742;7.158;2023-12-22T08:27:45;8.60;99.90
3644;DHT22;1838;50.742;7.158;2023-12-22T08:30:11;8.50;99.90
3644;DHT22;1838;50.742;7.158;2023-12-22T08:32:36;8.60;99.90
3644;DHT22;1838;50.742;7.158;2023-12-22T08:35:02;8.70;99.90
3644;DHT22;1838;50.742;7.158;2023-12-22T08:37:30;8.80;99.90
3644;DHT22;1838;50.742;7.158;2023-12-22T08:39:55;8.80;99.90
3644;DHT22;1838;50.742;7.158;2023-12-22T08:42:21;8.80;99.90
3644;DHT22;1838;50.742;7.158;2023-12-22T08:44:47;8.80;99.90
3644;DHT22;1838;50.742;7.158;2023-12-22T08:47:13;8.80;99.90
3644;DHT22;1838;50.742;7.158;2023-12-22T08:49:38;8.80;99.90
3644;DHT22;1838;50.742;7.158;2023-12-22T08:52:04;8.90;99.90
3644;DHT22;1838;50.742;7.158;2023-12-22T08:54:30;8.90;99.90
3644;DHT22;1838;50.742;7.158;2023-12-22T08:56:56;8.90;99.90
3644;DHT22;1838;50.742;7.158;2023-12-22T08:59:21;9.00;99.90
3644;DHT22;1838;50.742;7.158;2023-12-22T09:01:47;9.00;99.90
3644;DHT22;1838;50.742;7.158;2023-12-22T09:04:13;9.00;99.90
3644;DHT22;1838;50.742;7.158;2023-12-22T09:06:39;9.00;99.90
3644;DHT22;1838;50.742;7.158;2023-12-22T09:09:05;9.00;99.90
3644;DHT22;1838;50.742;7.158;2023-12-22T09:11:31;9.10;99.90
3644;DHT22;1838;50.742;7.158;2023-12-22T09:13:57;9.10;99.90
3644;DHT22;1838;50.742;7.158;2023-12-22T09:16:23;9.10;99.90
3644;DHT22;1838;50.742;7.158;2023-12-22T09:18:50;9.10;99.90
3644;DHT22;1838;50.742;7.158;2023-12-22T09:21:17;9.10;99.90
3644;DHT22;1838;50.742;7.158;2023-12-22T09:23:44;9.20;99.90
3644;DHT22;1838;50.742;7.158;2023-12-22T09:26:14;9.20;99.90
3644;DHT22;1838;50.742;7.158;2023-12-22T09:28:41;9.30;99.90
3644;DHT22;1838;50.742;7.158;2023-12-22T09:31:07;9.40;99.90
3644;DHT22;1838;50.742;7.158;2023-12-22T09:33:33;9.40;99.90
3644;DHT22;1838;50.742;7.158;2023-12-22T09:35:59;9.40;99.90
3644;DHT22;1838;50.742;7.158;2023-12-22T09:38:24;9.40;99.90
3644;DHT22;1838;50.742;7.158;2023-12-22T09:40:50;9.40;99.90
3644;DHT22;1838;50.742;7.158;2023-12-22T09:43:16;9.40;99.90
3644;DHT22;1838;50.742;7.158;2023-12-22T09:45:47;9.40;99.90
3644;DHT22;1838;50.742;7.158;2023-12-22T09:48:13;9.40;99.90
3644;DHT22;1838;50.742;7.158;2023-12-22T09:50:44;9.40;99.90
3644;DHT22;1838;50.742;7.158;2023-12-22T09:53:12;9.50;99.90
3644;DHT22;1838;50.742;7.158;2023-12-22T09:55:38;9.50;99.90
3644;DHT22;1838;50.742;7.158;2023-12-22T09:58:04;9.50;99.90
3644;DHT22;1838;50.742;7.158;2023-12-22T10:00:31;9.50;99.90
3644;DHT22;1838;50.742;7.158;2023-12-22T10:02:58;9.60;99.90
3644;DHT22;1838;50.742;7.158;2023-12-22T10:05:23;9.60;99.90
3644;DHT22;1838;50.742;7.158;2023-12-22T10:07:49;9.60;99.90
3644;DHT22;1838;50.742;7.158;2023-12-22T10:10:15;9.60;99.90
3644;DHT22;1838;50.742;7.158;2023-12-22T10:12:44;9.60;99.90
3644;DHT22;1838;50.742;7.158;2023-12-22T10:15:12;9.70;99.90
3644;DHT22;1838;50.742;7.158;2023-12-22T10:17:38;9.70;99.90
3644;DHT22;1838;50.742;7.158;2023-12-22T10:20:04;9.70;99.90
3644;DHT22;1838;50.742;7.158;2023-12-22T10:22:30;9.80;99.90
3644;DHT22;1838;50.742;7.158;2023-12-22T10:24:55;9.90;99.90
3644;DHT22;1838;50.742;7.158;2023-12-22T10:27:21;9.90;99.90
3644;DHT22;1838;50.742;7.158;2023-12-22T10:29:50;9.90;99.90
3644;DHT22;1838;50.742;7.158;2023-12-22T10:32:18;9.90;99.90
3644;DHT22;1838;50.742;7.158;2023-12-22T10:34:44;9.90;99.90
3644;DHT22;1838;50.742;7.158;2023-12-22T10:37:10;9.90;99.90
3644;DHT22;1838;50.742;7.158;2023-12-22T10:39:38;9.90;99.90
3644;DHT22;1838;50.742;7.158;2023-12-22T10:42:04;9.90;99.90
3644;DHT22;1838;50.742;7.158;2023-12-22T10:44:30;9.80;99.90
3644;DHT22;1838;50.742;7.158;2023-12-22T10:46:56;9.80;99.90
3644;DHT22;1838;50.742;7.158;2023-12-22T10:49:23;9.80;99.90
3644;DHT22;1838;50.742;7.158;2023-12-22T10:51:49;9.90;99.90
3644;DHT22;1838;50.742;7.158;2023-12-22T10:54:16;9.90;99.90
3644;DHT22;1838;50.742;7.158;2023-12-22T10:56:41;9.90;99.90
3644;DHT22;1838;50.742;7.158;2023-12-22T10:59:08;9.80;99.90
3644;DHT22;1838;50.742;7.158;2023-12-22T11:01:35;9.80;99.90
3644;DHT22;1838;50.742;7.158;2023-12-22T11:04:09;9.80;99.90
3644;DHT22;1838;50.742;7.158;2023-12-22T11:06:41;9.80;99.90
3644;DHT22;1838;50.742;7.158;2023-12-22T11:09:08;9.70;99.90
3644;DHT22;1838;50.742;7.158;2023-12-22T11:11:35;9.70;99.90
3644;DHT22;1838;50.742;7.158;2023-12-22T11:14:01;9.70;99.90
3644;DHT22;1838;50.742;7.158;2023-12-22T11:16:30;9.70;99.90
3644;DHT22;1838;50.742;7.158;2023-12-22T11:18:56;9.70;99.90
3644;DHT22;1838;50.742;7.158;2023-12-22T11:21:23;9.80;99.90
3644;DHT22;1838;50.742;7.158;2023-12-22T11:23:53;9.80;99.90
3644;DHT22;1838;50.742;7.158;2023-12-22T11:26:19;9.80;99.90
3644;DHT22;1838;50.742;7.158;2023-12-22T11:28:46;9.80;99.90
3644;DHT22;1838;50.742;7.158;2023-12-22T11:31:13;9.70;99.90
3644;DHT22;1838;50.742;7.158;2023-12-22T11:33:45;9.80;99.90
3644;DHT22;1838;50.742;7.158;2023-12-22T11:36:12;9.80;99.90
3644;DHT22;1838;50.742;7.158;2023-12-22T11:38:42;9.80;99.90
3644;DHT22;1838;50.742;7.158;2023-12-22T11:41:11;9.80;99.90
3644;DHT22;1838;50.742;7.158;2023-12-22T11:43:39;9.90;99.90
3644;DHT22;1838;50.742;7.158;2023-12-22T11:46:05;9.90;99.90
3644;DHT22;1838;50.742;7.158;2023-12-22T11:48:31;9.90;99.90
3644;DHT22;1838;50.742;7.158;2023-12-22T11:50:57;9.90;99.90
3644;DHT22;1838;50.742;7.158;2023-12-22T11:53:24;10.00;99.90
3644;DHT22;1838;50.742;7.158;2023-12-22T11:58:38;10.00;99.90
3644;DHT22;1838;50.742;7.158;2023-12-22T12:01:13;10.00;99.90
3644;DHT22;1838;50.742;7.158;2023-12-22T12:08:39;10.10;99.90
3644;DHT22;1838;50.742;7.158;2023-12-22T12:11:04;10.10;99.90
3644;DHT22;1838;50.742;7.158;2023-12-22T12:13:33;10.10;99.90
3644;DHT22;1838;50.742;7.158;2023-12-22T12:15:59;10.20;99.90
3644;DHT22;1838;50.742;7.158;2023-12-22T12:18:31;10.20;99.90
3644;DHT22;1838;50.742;7.158;2023-12-22T12:20:57;10.20;99.90
3644;DHT22;1838;50.742;7.158;2023-12-22T12:23:26;10.20;99.90
3644;DHT22;1838;50.742;7.158;2023-12-22T12:25:53;10.30;99.90
3644;DHT22;1838;50.742;7.158;2023-12-22T12:28:26;10.30;99.90
3644;DHT22;1838;50.742;7.158;2023-12-22T12:31:01;10.40;99.90
3644;DHT22;1838;50.742;7.158;2023-12-22T12:33:28;10.40;99.90
3644;DHT22;1838;50.742;7.158;2023-12-22T12:35:58;10.50;99.90
3644;DHT22;1838;50.742;7.158;2023-12-22T12:41:09;10.50;99.90
3644;DHT22;1838;50.742;7.158;2023-12-22T12:43:37;10.50;99.90
3644;DHT22;1838;50.742;7.158;2023-12-22T12:46:06;10.60;99.90
3644;DHT22;1838;50.742;7.158;2023-12-22T12:48:31;10.60;99.90
3644;DHT22;1838;50.742;7.158;2023-12-22T12:51:04;10.70;99.90
3644;DHT22;1838;50.742;7.158;2023-12-22T12:53:34;10.70;99.90
3644;DHT22;1838;50.742;7.158;2023-12-22T12:56:01;10.70;99.90
3644;DHT22;1838;50.742;7.158;2023-12-22T12:58:30;10.70;99.90
3644;DHT22;1838;50.742;7.158;2023-12-22T13:01:08;10.70;99.90
3644;DHT22;1838;50.742;7.158;2023-12-22T13:03:53;10.70;99.90
3644;DHT22;1838;50.742;7.158;2023-12-22T13:06:19;10.70;99.90
3644;DHT22;1838;50.742;7.158;2023-12-22T13:08:52;10.70;99.90
3644;DHT22;1838;50.742;7.158;2023-12-22T13:11:24;10.70;99.90
3644;DHT22;1838;50.742;7.158;2023-12-22T13:13:52;10.70;99.90
3644;DHT22;1838;50.742;7.158;2023-12-22T13:16:23;10.70;99.90
3644;DHT22;1838;50.742;7.158;2023-12-22T13:18:54;10.70;99.90
3644;DHT22;1838;50.742;7.158;2023-12-22T13:21:20;10.70;99.90
3644;DHT22;1838;50.742;7.158;2023-12-22T13:23:46;10.60;99.90
3644;DHT22;1838;50.742;7.158;2023-12-22T13:26:19;10.60;99.90
3644;DHT22;1838;50.742;7.158;2023-12-22T13:28:45;10.60;99.90
3644;DHT22;1838;50.742;7.158;2023-12-22T13:31:14;10.60;99.90
3644;DHT22;1838;50.742;7.158;2023-12-22T13:33:40;10.50;99.90
3644;DHT22;1838;50.742;7.158;2023-12-22T13:36:06;10.40;99.90
3644;DHT22;1838;50.742;7.158;2023-12-22T13:38:33;10.30;99.90
3644;DHT22;1838;50.742;7.158;2023-12-22T13:41:01;10.30;99.90
3644;DHT22;1838;50.742;7.158;2023-12-22T13:43:30;10.30;99.90
3644;DHT22;1838;50.742;7.158;2023-12-22T13:45:56;10.30;99.90
3644;DHT22;1838;50.742;7.158;2023-12-22T13:48:23;10.40;99.90
3644;DHT22;1838;50.742;7.158;2023-12-22T13:50:59;10.40;99.90
3644;DHT22;1838;50.742;7.158;2023-12-22T13:53:25;10.40;99.90
3644;DHT22;1838;50.742;7.158;2023-12-22T13:55:57;10.40;99.90
3644;DHT22;1838;50.742;7.158;2023-12-22T13:58:23;10.40;99.90
3644;DHT22;1838;50.742;7.158;2023-12-22T14:00:49;10.40;99.90
3644;DHT22;1838;50.742;7.158;2023-12-22T14:03:15;10.40;99.90
3644;DHT22;1838;50.742;7.158;2023-12-22T14:05:47;10.40;99.90
3644;DHT22;1838;50.742;7.158;2023-12-22T14:08:14;10.40;99.90
3644;DHT22;1838;50.742;7.158;2023-12-22T14:10:46;10.40;99.90
3644;DHT22;1838;50.742;7.158;2023-12-22T14:13:13;10.50;99.90
3644;DHT22;1838;50.742;7.158;2023-12-22T14:15:38;10.50;99.90
3644;DHT22;1838;50.742;7.158;2023-12-22T14:18:04;10.50;99.90
3644;DHT22;1838;50.742;7.158;2023-12-22T14:20:29;10.50;99.90
3644;DHT22;1838;50.742;7.158;2023-12-22T14:22:55;10.50;99.90
3644;DHT22;1838;50.742;7.158;2023-12-22T14:25:20;10.50;99.90
3644;DHT22;1838;50.742;7.158;2023-12-22T14:27:46;10.60;99.90
3644;DHT22;1838;50.742;7.158;2023-12-22T14:30:12;10.60;99.90
3644;DHT22;1838;50.742;7.158;2023-12-22T14:32:37;10.60;99.90
3644;DHT22;1838;50.742;7.158;2023-12-22T14:35:03;10.60;99.90
3644;DHT22;1838;50.742;7.158;2023-12-22T14:37:29;10.50;99.90
3644;DHT22;1838;50.742;7.158;2023-12-22T14:39:54;10.60;99.90
3644;DHT22;1838;50.742;7.158;2023-12-22T14:42:20;10.50;99.90
3644;DHT22;1838;50.742;7.158;2023-12-22T14:44:45;10.50;99.90
3644;DHT22;1838;50.742;7.158;2023-12-22T14:47:11;10.50;99.90
3644;DHT22;1838;50.742;7.158;2023-12-22T14:49:36;10.50;99.90
3644;DHT22;1838;50.742;7.158;2023-12-22T14:52:02;10.40;99.90
3644;DHT22;1838;50.742;7.158;2023-12-22T14:54:28;10.50;99.90
3644;DHT22;1838;50.742;7.158;2023-12-22T14:56:53;10.50;99.90
3644;DHT22;1838;50.742;7.158;2023-12-22T14:59:19;10.50;99.90
3644;DHT22;1838;50.742;7.158;2023-12-22T15:01:44;10.40;99.90
3644;DHT22;1838;50.742;7.158;2023-12-22T15:04:10;10.40;99.90
3644;DHT22;1838;50.742;7.158;2023-12-22T15:06:39;10.40;99.90
3644;DHT22;1838;50.742;7.158;2023-12-22T15:09:06;10.50;99.90
3644;DHT22;1838;50.742;7.158;2023-12-22T15:11:31;10.40;99.90
3644;DHT22;1838;50.742;7.158;2023-12-22T15:13:57;10.50;99.90
3644;DHT22;1838;50.742;7.158;2023-12-22T15:16:22;10.50;99.90
3644;DHT22;1838;50.742;7.158;2023-12-22T15:18:48;10.40;99.90
3644;DHT22;1838;50.742;7.158;2023-12-22T15:21:20;10.40;99.90
3644;DHT22;1838;50.742;7.158;2023-12-22T15:23:50;10.40;99.90
3644;DHT22;1838;50.742;7.158;2023-12-22T15:26:25;10.40;99.90
3644;DHT22;1838;50.742;7.158;2023-12-22T15:28:53;10.40;99.90
3644;DHT22;1838;50.742;7.158;2023-12-22T15:31:19;10.40;99.90
3644;DHT22;1838;50.742;7.158;2023-12-22T15:33:44;10.40;99.90
3644;DHT22;1838;50.742;7.158;2023-12-22T15:36:19;10.40;99.90
3644;DHT22;1838;50.742;7.158;2023-12-22T15:38:45;10.40;99.90
3644;DHT22;1838;50.742;7.158;2023-12-22T15:41:11;10.40;99.90
3644;DHT22;1838;50.742;7.158;2023-12-22T15:43:37;10.40;99.90
3644;DHT22;1838;50.742;7.158;2023-12-22T15:46:07;10.40;99.90
3644;DHT22;1838;50.742;7.158;2023-12-22T15:48:36;10.30;99.90
3644;DHT22;1838;50.742;7.158;2023-12-22T15:51:09;10.30;99.90
3644;DHT22;1838;50.742;7.158;2023-12-22T15:53:39;10.30;99.90
3644;DHT22;1838;50.742;7.158;2023-12-22T15:56:05;10.30;99.90
3644;DHT22;1838;50.742;7.158;2023-12-22T15:58:31;10.20;99.90
3644;DHT22;1838;50.742;7.158;2023-12-22T16:00:57;10.20;99.90
3644;DHT22;1838;50.742;7.158;2023-12-22T16:03:23;10.20;99.90
3644;DHT22;1838;50.742;7.158;2023-12-22T16:05:48;10.20;99.90
3644;DHT22;1838;50.742;7.158;2023-12-22T16:08:14;10.20;99.90
3644;DHT22;1838;50.742;7.158;2023-12-22T16:10:40;10.30;99.90
3644;DHT22;1838;50.742;7.158;2023-12-22T16:13:05;10.20;99.90
3644;DHT22;1838;50.742;7.158;2023-12-22T16:15:32;10.20;99.90
3644;DHT22;1838;50.742;7.158;2023-12-22T16:17:57;10.20;99.90
3644;DHT22;1838;50.742;7.158;2023-12-22T16:20:23;10.20;99.90
3644;DHT22;1838;50.742;7.158;2023-12-22T16:22:51;10.20;99.90
3644;DHT22;1838;50.742;7.158;2023-12-22T16:25:16;10.20;99.90
3644;DHT22;1838;50.742;7.158;2023-12-22T16:27:42;10.20;99.90
3644;DHT22;1838;50.742;7.158;2023-12-22T16:30:07;10.20;99.90
3644;DHT22;1838;50.742;7.158;2023-12-22T16:32:33;10.20;99.90